sensor_id;sensor_type;location;lat;lon;timestamp;P1;durP1;ratioP1;P2;durP2;ratioP2
37231;SDS011;23125;48.156;15.954;2024-01-07T00:01:57;1.63;;;1.40;;
37231;SDS011;23125;48.156;15.954;2024-01-07T00:04:23;2.30;;;1.10;;
37231;SDS011;23125;48.156;15.954;2024-01-07T00:06:49;1.90;;;1.50;;
37231;SDS011;23125;48.156;15.954;2024-01-07T00:09:18;3.38;;;1.00;;
37231;SDS011;23125;48.156;15.954;2024-01-07T00:11:44;1.35;;;1.15;;
37231;SDS011;23125;48.156;15.954;2024-01-07T00:14:10;2.22;;;1.33;;
37231;SDS011;23125;48.156;15.954;2024-01-07T00:16:36;1.10;;;1.00;;
37231;SDS011;23125;48.156;15.954;2024-01-07T00:19:02;1.92;;;1.10;;
37231;SDS011;23125;48.156;15.954;2024-01-07T00:21:27;1.50;;;1.10;;
37231;SDS011;23125;48.156;15.954;2024-01-07T00:23:54;2.33;;;1.30;;
37231;SDS011;23125;48.156;15.954;2024-01-07T00:26:20;1.85;;;1.20;;
37231;SDS011;23125;48.156;15.954;2024-01-07T00:28:46;2.28;;;1.10;;
37231;SDS011;23125;48.156;15.954;2024-01-07T00:31:12;1.58;;;1.20;;
37231;SDS011;23125;48.156;15.954;2024-01-07T00:33:38;1.63;;;1.05;;
37231;SDS011;23125;48.156;15.954;2024-01-07T00:36:04;2.17;;;1.50;;
37231;SDS011;23125;48.156;15.954;2024-01-07T00:38:30;2.17;;;1.50;;
37231;SDS011;23125;48.156;15.954;2024-01-07T00:40:56;3.15;;;1.17;;
37231;SDS011;23125;48.156;15.954;2024-01-07T00:43:22;1.42;;;1.17;;
37231;SDS011;23125;48.156;15.954;2024-01-07T00:45:47;1.63;;;1.08;;
37231;SDS011;23125;48.156;15.954;2024-01-07T00:48:14;2.58;;;1.67;;
37231;SDS011;23125;48.156;15.954;2024-01-07T00:50:40;1.77;;;1.38;;
37231;SDS011;23125;48.156;15.954;2024-01-07T00:53:06;1.60;;;1.40;;
37231;SDS011;23125;48.156;15.954;2024-01-07T00:55:32;1.60;;;1.33;;
37231;SDS011;23125;48.156;15.954;2024-01-07T00:57:58;2.05;;;1.60;;
37231;SDS011;23125;48.156;15.954;2024-01-07T01:00:24;1.80;;;1.48;;
37231;SDS011;23125;48.156;15.954;2024-01-07T01:02:49;1.80;;;1.45;;
37231;SDS011;23125;48.156;15.954;2024-01-07T01:05:15;2.53;;;1.67;;
37231;SDS011;23125;48.156;15.954;2024-01-07T01:07:41;2.28;;;1.77;;
37231;SDS011;23125;48.156;15.954;2024-01-07T01:10:07;2.28;;;1.73;;
37231;SDS011;23125;48.156;15.954;2024-01-07T01:12:34;2.40;;;1.70;;
37231;SDS011;23125;48.156;15.954;2024-01-07T01:14:59;2.55;;;2.00;;
37231;SDS011;23125;48.156;15.954;2024-01-07T01:17:25;4.75;;;2.10;;
37231;SDS011;23125;48.156;15.954;2024-01-07T01:19:51;3.22;;;2.33;;
37231;SDS011;23125;48.156;15.954;2024-01-07T01:22:17;3.28;;;1.98;;
37231;SDS011;23125;48.156;15.954;2024-01-07T01:24:43;3.55;;;2.17;;
37231;SDS011;23125;48.156;15.954;2024-01-07T01:27:13;2.95;;;2.35;;
37231;SDS011;23125;48.156;15.954;2024-01-07T01:32:06;4.80;;;2.42;;
37231;SDS011;23125;48.156;15.954;2024-01-07T01:34:32;4.10;;;2.67;;
37231;SDS011;23125;48.156;15.954;2024-01-07T01:36:58;5.80;;;2.33;;
37231;SDS011;23125;48.156;15.954;2024-01-07T01:39:24;3.72;;;2.78;;
37231;SDS011;23125;48.156;15.954;2024-01-07T01:41:49;5.88;;;3.28;;
37231;SDS011;23125;48.156;15.954;2024-01-07T01:44:15;5.95;;;3.30;;
37231;SDS011;23125;48.156;15.954;2024-01-07T01:46:41;4.55;;;3.13;;
37231;SDS011;23125;48.156;15.954;2024-01-07T01:49:10;4.18;;;3.40;;
37231;SDS011;23125;48.156;15.954;2024-01-07T01:51:36;3.85;;;3.17;;
37231;SDS011;23125;48.156;15.954;2024-01-07T01:54:02;5.20;;;3.50;;
37231;SDS011;23125;48.156;15.954;2024-01-07T01:56:28;4.93;;;3.35;;
37231;SDS011;23125;48.156;15.954;2024-01-07T01:58:55;6.47;;;3.90;;
37231;SDS011;23125;48.156;15.954;2024-01-07T02:01:22;6.07;;;3.65;;
37231;SDS011;23125;48.156;15.954;2024-01-07T02:03:49;4.82;;;3.13;;
37231;SDS011;23125;48.156;15.954;2024-01-07T02:06:17;5.70;;;3.65;;
37231;SDS011;23125;48.156;15.954;2024-01-07T02:08:43;6.18;;;3.70;;
37231;SDS011;23125;48.156;15.954;2024-01-07T02:11:19;5.63;;;3.63;;
37231;SDS011;23125;48.156;15.954;2024-01-07T02:13:46;6.63;;;4.20;;
37231;SDS011;23125;48.156;15.954;2024-01-07T02:16:12;9.60;;;4.75;;
37231;SDS011;23125;48.156;15.954;2024-01-07T02:18:40;6.53;;;3.38;;
37231;SDS011;23125;48.156;15.954;2024-01-07T02:21:09;6.22;;;3.78;;
37231;SDS011;23125;48.156;15.954;2024-01-07T02:23:35;6.57;;;3.92;;
37231;SDS011;23125;48.156;15.954;2024-01-07T02:26:02;5.03;;;3.55;;
37231;SDS011;23125;48.156;15.954;2024-01-07T02:28:28;6.40;;;3.47;;
37231;SDS011;23125;48.156;15.954;2024-01-07T02:30:55;6.70;;;3.75;;
37231;SDS011;23125;48.156;15.954;2024-01-07T02:33:21;7.38;;;3.88;;
37231;SDS011;23125;48.156;15.954;2024-01-07T02:35:47;7.03;;;4.18;;
37231;SDS011;23125;48.156;15.954;2024-01-07T02:38:13;7.55;;;3.90;;
37231;SDS011;23125;48.156;15.954;2024-01-07T02:40:39;5.18;;;3.30;;
37231;SDS011;23125;48.156;15.954;2024-01-07T02:43:05;6.82;;;3.60;;
37231;SDS011;23125;48.156;15.954;2024-01-07T02:45:30;6.70;;;3.92;;
37231;SDS011;23125;48.156;15.954;2024-01-07T02:47:56;5.53;;;3.38;;
37231;SDS011;23125;48.156;15.954;2024-01-07T02:50:22;8.48;;;4.65;;
37231;SDS011;23125;48.156;15.954;2024-01-07T02:52:48;8.35;;;4.40;;
37231;SDS011;23125;48.156;15.954;2024-01-07T02:55:14;7.05;;;4.50;;
37231;SDS011;23125;48.156;15.954;2024-01-07T02:57:40;7.55;;;4.22;;
37231;SDS011;23125;48.156;15.954;2024-01-07T03:00:06;7.05;;;4.55;;
37231;SDS011;23125;48.156;15.954;2024-01-07T03:02:33;7.25;;;4.32;;
37231;SDS011;23125;48.156;15.954;2024-01-07T03:04:58;7.13;;;4.32;;
37231;SDS011;23125;48.156;15.954;2024-01-07T03:07:24;7.30;;;3.90;;
37231;SDS011;23125;48.156;15.954;2024-01-07T03:09:50;8.85;;;4.47;;
37231;SDS011;23125;48.156;15.954;2024-01-07T03:12:16;7.00;;;4.18;;
37231;SDS011;23125;48.156;15.954;2024-01-07T03:14:42;8.45;;;5.18;;
37231;SDS011;23125;48.156;15.954;2024-01-07T03:17:09;7.97;;;4.60;;
37231;SDS011;23125;48.156;15.954;2024-01-07T03:19:37;6.07;;;3.58;;
37231;SDS011;23125;48.156;15.954;2024-01-07T03:22:03;6.47;;;3.92;;
37231;SDS011;23125;48.156;15.954;2024-01-07T03:24:32;6.65;;;4.10;;
37231;SDS011;23125;48.156;15.954;2024-01-07T03:26:58;8.43;;;4.70;;
37231;SDS011;23125;48.156;15.954;2024-01-07T03:29:24;6.55;;;4.30;;
37231;SDS011;23125;48.156;15.954;2024-01-07T03:31:50;6.60;;;3.75;;
37231;SDS011;23125;48.156;15.954;2024-01-07T03:34:18;6.20;;;3.70;;
37231;SDS011;23125;48.156;15.954;2024-01-07T03:36:45;6.85;;;4.40;;
37231;SDS011;23125;48.156;15.954;2024-01-07T03:39:11;7.07;;;4.20;;
37231;SDS011;23125;48.156;15.954;2024-01-07T03:41:37;8.93;;;4.40;;
37231;SDS011;23125;48.156;15.954;2024-01-07T03:44:03;8.68;;;4.60;;
37231;SDS011;23125;48.156;15.954;2024-01-07T03:46:29;9.52;;;4.68;;
37231;SDS011;23125;48.156;15.954;2024-01-07T03:48:54;6.75;;;4.10;;
37231;SDS011;23125;48.156;15.954;2024-01-07T03:51:20;7.20;;;4.47;;
37231;SDS011;23125;48.156;15.954;2024-01-07T03:53:46;6.28;;;4.30;;
37231;SDS011;23125;48.156;15.954;2024-01-07T03:56:12;5.80;;;3.53;;
37231;SDS011;23125;48.156;15.954;2024-01-07T03:58:38;8.68;;;4.57;;
37231;SDS011;23125;48.156;15.954;2024-01-07T04:01:03;8.35;;;4.60;;
37231;SDS011;23125;48.156;15.954;2024-01-07T04:03:30;9.15;;;5.15;;
37231;SDS011;23125;48.156;15.954;2024-01-07T04:05:56;7.25;;;3.88;;
37231;SDS011;23125;48.156;15.954;2024-01-07T04:08:21;7.55;;;4.95;;
37231;SDS011;23125;48.156;15.954;2024-01-07T04:10:47;7.15;;;4.10;;
37231;SDS011;23125;48.156;15.954;2024-01-07T04:13:14;7.75;;;4.63;;
37231;SDS011;23125;48.156;15.954;2024-01-07T04:15:39;7.80;;;4.88;;
37231;SDS011;23125;48.156;15.954;2024-01-07T04:18:05;8.23;;;4.50;;
37231;SDS011;23125;48.156;15.954;2024-01-07T04:20:31;7.57;;;5.00;;
37231;SDS011;23125;48.156;15.954;2024-01-07T04:22:57;8.45;;;4.53;;
37231;SDS011;23125;48.156;15.954;2024-01-07T04:25:26;7.00;;;4.30;;
37231;SDS011;23125;48.156;15.954;2024-01-07T04:27:52;7.38;;;4.53;;
37231;SDS011;23125;48.156;15.954;2024-01-07T04:30:18;10.93;;;6.32;;
37231;SDS011;23125;48.156;15.954;2024-01-07T04:32:44;7.55;;;5.28;;
37231;SDS011;23125;48.156;15.954;2024-01-07T04:35:09;7.07;;;4.22;;
37231;SDS011;23125;48.156;15.954;2024-01-07T04:37:37;11.18;;;5.40;;
37231;SDS011;23125;48.156;15.954;2024-01-07T04:40:03;8.55;;;5.07;;
37231;SDS011;23125;48.156;15.954;2024-01-07T04:42:30;29.70;;;11.95;;
37231;SDS011;23125;48.156;15.954;2024-01-07T04:44:56;19.60;;;8.50;;
37231;SDS011;23125;48.156;15.954;2024-01-07T04:47:26;7.38;;;4.72;;
37231;SDS011;23125;48.156;15.954;2024-01-07T04:49:54;9.95;;;5.95;;
37231;SDS011;23125;48.156;15.954;2024-01-07T04:52:23;6.88;;;4.53;;
37231;SDS011;23125;48.156;15.954;2024-01-07T04:54:53;7.40;;;4.93;;
37231;SDS011;23125;48.156;15.954;2024-01-07T04:57:20;7.75;;;5.03;;
37231;SDS011;23125;48.156;15.954;2024-01-07T04:59:47;7.55;;;4.72;;
37231;SDS011;23125;48.156;15.954;2024-01-07T05:02:14;8.88;;;4.97;;
37231;SDS011;23125;48.156;15.954;2024-01-07T05:04:40;7.70;;;4.15;;
37231;SDS011;23125;48.156;15.954;2024-01-07T05:07:07;9.65;;;4.88;;
37231;SDS011;23125;48.156;15.954;2024-01-07T05:09:33;7.53;;;4.32;;
37231;SDS011;23125;48.156;15.954;2024-01-07T05:11:59;7.25;;;4.70;;
37231;SDS011;23125;48.156;15.954;2024-01-07T05:14:26;7.75;;;4.53;;
37231;SDS011;23125;48.156;15.954;2024-01-07T05:16:55;9.18;;;4.78;;
37231;SDS011;23125;48.156;15.954;2024-01-07T05:19:21;8.55;;;5.03;;
37231;SDS011;23125;48.156;15.954;2024-01-07T05:21:47;9.60;;;5.13;;
37231;SDS011;23125;48.156;15.954;2024-01-07T05:24:12;8.60;;;4.85;;
37231;SDS011;23125;48.156;15.954;2024-01-07T05:26:39;6.80;;;4.00;;
37231;SDS011;23125;48.156;15.954;2024-01-07T05:29:07;8.00;;;4.95;;
37231;SDS011;23125;48.156;15.954;2024-01-07T05:31:33;7.25;;;4.38;;
37231;SDS011;23125;48.156;15.954;2024-01-07T05:33:58;6.70;;;4.35;;
37231;SDS011;23125;48.156;15.954;2024-01-07T05:36:25;9.05;;;5.05;;
37231;SDS011;23125;48.156;15.954;2024-01-07T05:38:51;8.55;;;4.90;;
37231;SDS011;23125;48.156;15.954;2024-01-07T05:41:17;8.50;;;4.57;;
37231;SDS011;23125;48.156;15.954;2024-01-07T05:43:43;6.63;;;3.72;;
37231;SDS011;23125;48.156;15.954;2024-01-07T05:46:08;9.88;;;4.57;;
37231;SDS011;23125;48.156;15.954;2024-01-07T05:48:42;6.55;;;4.45;;
37231;SDS011;23125;48.156;15.954;2024-01-07T05:51:09;7.18;;;4.38;;
37231;SDS011;23125;48.156;15.954;2024-01-07T05:53:35;5.30;;;3.92;;
37231;SDS011;23125;48.156;15.954;2024-01-07T05:56:01;7.07;;;4.00;;
37231;SDS011;23125;48.156;15.954;2024-01-07T05:58:28;7.43;;;4.20;;
37231;SDS011;23125;48.156;15.954;2024-01-07T06:00:55;5.88;;;3.88;;
37231;SDS011;23125;48.156;15.954;2024-01-07T06:03:21;5.50;;;4.03;;
37231;SDS011;23125;48.156;15.954;2024-01-07T06:05:47;7.85;;;4.30;;
37231;SDS011;23125;48.156;15.954;2024-01-07T06:08:13;6.70;;;3.63;;
37231;SDS011;23125;48.156;15.954;2024-01-07T06:10:39;6.90;;;4.00;;
37231;SDS011;23125;48.156;15.954;2024-01-07T06:13:06;6.97;;;3.97;;
37231;SDS011;23125;48.156;15.954;2024-01-07T06:15:32;4.93;;;3.53;;
37231;SDS011;23125;48.156;15.954;2024-01-07T06:17:58;4.85;;;3.35;;
37231;SDS011;23125;48.156;15.954;2024-01-07T06:20:24;4.93;;;3.30;;
37231;SDS011;23125;48.156;15.954;2024-01-07T06:22:50;6.50;;;3.92;;
37231;SDS011;23125;48.156;15.954;2024-01-07T06:25:16;6.50;;;3.67;;
37231;SDS011;23125;48.156;15.954;2024-01-07T06:27:42;5.20;;;3.58;;
37231;SDS011;23125;48.156;15.954;2024-01-07T06:30:08;6.85;;;3.95;;
37231;SDS011;23125;48.156;15.954;2024-01-07T06:32:34;7.07;;;4.13;;
37231;SDS011;23125;48.156;15.954;2024-01-07T06:35:01;7.53;;;4.40;;
37231;SDS011;23125;48.156;15.954;2024-01-07T06:37:28;6.97;;;4.38;;
37231;SDS011;23125;48.156;15.954;2024-01-07T06:39:55;9.07;;;4.57;;
37231;SDS011;23125;48.156;15.954;2024-01-07T06:42:23;11.20;;;4.80;;
37231;SDS011;23125;48.156;15.954;2024-01-07T06:44:50;8.35;;;4.65;;
37231;SDS011;23125;48.156;15.954;2024-01-07T06:47:16;11.65;;;5.15;;
37231;SDS011;23125;48.156;15.954;2024-01-07T06:49:42;6.90;;;4.05;;
37231;SDS011;23125;48.156;15.954;2024-01-07T06:52:07;7.32;;;4.25;;
37231;SDS011;23125;48.156;15.954;2024-01-07T06:54:33;6.55;;;4.07;;
37231;SDS011;23125;48.156;15.954;2024-01-07T06:56:59;6.63;;;4.30;;
37231;SDS011;23125;48.156;15.954;2024-01-07T06:59:25;9.68;;;4.63;;
37231;SDS011;23125;48.156;15.954;2024-01-07T07:01:51;6.82;;;4.00;;
37231;SDS011;23125;48.156;15.954;2024-01-07T07:04:18;6.40;;;3.70;;
37231;SDS011;23125;48.156;15.954;2024-01-07T07:06:45;6.30;;;3.63;;
37231;SDS011;23125;48.156;15.954;2024-01-07T07:09:11;7.63;;;4.47;;
37231;SDS011;23125;48.156;15.954;2024-01-07T07:11:38;8.32;;;5.05;;
37231;SDS011;23125;48.156;15.954;2024-01-07T07:14:03;8.10;;;4.47;;
37231;SDS011;23125;48.156;15.954;2024-01-07T07:16:29;6.82;;;4.32;;
37231;SDS011;23125;48.156;15.954;2024-01-07T07:18:55;8.55;;;4.28;;
37231;SDS011;23125;48.156;15.954;2024-01-07T07:21:21;8.57;;;4.47;;
37231;SDS011;23125;48.156;15.954;2024-01-07T07:23:48;11.07;;;5.55;;
37231;SDS011;23125;48.156;15.954;2024-01-07T07:26:14;11.30;;;5.53;;
37231;SDS011;23125;48.156;15.954;2024-01-07T07:28:40;10.02;;;5.38;;
37231;SDS011;23125;48.156;15.954;2024-01-07T07:31:05;11.60;;;6.63;;
37231;SDS011;23125;48.156;15.954;2024-01-07T07:33:31;11.98;;;6.57;;
37231;SDS011;23125;48.156;15.954;2024-01-07T07:35:57;7.97;;;5.57;;
37231;SDS011;23125;48.156;15.954;2024-01-07T07:38:23;11.35;;;6.50;;
37231;SDS011;23125;48.156;15.954;2024-01-07T07:40:49;10.55;;;5.93;;
37231;SDS011;23125;48.156;15.954;2024-01-07T07:43:18;10.23;;;6.38;;
37231;SDS011;23125;48.156;15.954;2024-01-07T07:45:46;11.48;;;6.82;;
37231;SDS011;23125;48.156;15.954;2024-01-07T07:48:12;9.32;;;5.40;;
37231;SDS011;23125;48.156;15.954;2024-01-07T07:50:39;7.22;;;3.78;;
37231;SDS011;23125;48.156;15.954;2024-01-07T07:53:06;7.75;;;4.80;;
37231;SDS011;23125;48.156;15.954;2024-01-07T07:55:32;8.55;;;4.53;;
37231;SDS011;23125;48.156;15.954;2024-01-07T07:57:58;6.95;;;4.45;;
37231;SDS011;23125;48.156;15.954;2024-01-07T08:00:23;9.77;;;5.22;;
37231;SDS011;23125;48.156;15.954;2024-01-07T08:02:49;9.60;;;5.20;;
37231;SDS011;23125;48.156;15.954;2024-01-07T08:05:15;9.43;;;5.78;;
37231;SDS011;23125;48.156;15.954;2024-01-07T08:07:42;10.98;;;5.35;;
37231;SDS011;23125;48.156;15.954;2024-01-07T08:10:08;8.40;;;5.43;;
37231;SDS011;23125;48.156;15.954;2024-01-07T08:12:34;8.60;;;5.43;;
37231;SDS011;23125;48.156;15.954;2024-01-07T08:15:00;11.07;;;5.55;;
37231;SDS011;23125;48.156;15.954;2024-01-07T08:17:27;9.88;;;5.28;;
37231;SDS011;23125;48.156;15.954;2024-01-07T08:19:54;9.50;;;5.30;;
37231;SDS011;23125;48.156;15.954;2024-01-07T08:22:19;9.93;;;5.13;;
37231;SDS011;23125;48.156;15.954;2024-01-07T08:24:45;9.00;;;5.50;;
37231;SDS011;23125;48.156;15.954;2024-01-07T08:27:11;9.77;;;5.25;;
37231;SDS011;23125;48.156;15.954;2024-01-07T08:29:37;8.32;;;4.55;;
37231;SDS011;23125;48.156;15.954;2024-01-07T08:32:03;8.27;;;4.82;;
37231;SDS011;23125;48.156;15.954;2024-01-07T08:34:29;7.40;;;3.92;;
37231;SDS011;23125;48.156;15.954;2024-01-07T08:36:55;6.88;;;4.07;;
37231;SDS011;23125;48.156;15.954;2024-01-07T08:39:21;6.57;;;4.32;;
37231;SDS011;23125;48.156;15.954;2024-01-07T08:41:46;10.35;;;4.68;;
37231;SDS011;23125;48.156;15.954;2024-01-07T08:44:12;10.10;;;6.03;;
37231;SDS011;23125;48.156;15.954;2024-01-07T08:46:38;9.30;;;5.25;;
37231;SDS011;23125;48.156;15.954;2024-01-07T08:49:04;9.68;;;5.82;;
37231;SDS011;23125;48.156;15.954;2024-01-07T08:51:30;17.10;;;11.05;;
37231;SDS011;23125;48.156;15.954;2024-01-07T08:53:56;14.57;;;7.03;;
37231;SDS011;23125;48.156;15.954;2024-01-07T08:56:23;8.60;;;5.53;;
37231;SDS011;23125;48.156;15.954;2024-01-07T08:58:49;13.52;;;9.02;;
37231;SDS011;23125;48.156;15.954;2024-01-07T09:01:15;12.35;;;8.55;;
37231;SDS011;23125;48.156;15.954;2024-01-07T09:03:40;8.55;;;5.10;;
37231;SDS011;23125;48.156;15.954;2024-01-07T09:06:07;7.50;;;3.80;;
37231;SDS011;23125;48.156;15.954;2024-01-07T09:08:33;8.02;;;4.90;;
37231;SDS011;23125;48.156;15.954;2024-01-07T09:11:00;7.00;;;3.67;;
37231;SDS011;23125;48.156;15.954;2024-01-07T09:13:29;7.65;;;4.13;;
37231;SDS011;23125;48.156;15.954;2024-01-07T09:15:55;6.45;;;4.50;;
37231;SDS011;23125;48.156;15.954;2024-01-07T09:18:20;8.88;;;5.10;;
37231;SDS011;23125;48.156;15.954;2024-01-07T09:20:46;6.63;;;4.28;;
37231;SDS011;23125;48.156;15.954;2024-01-07T09:23:12;7.43;;;4.40;;
37231;SDS011;23125;48.156;15.954;2024-01-07T09:25:40;6.97;;;4.43;;
37231;SDS011;23125;48.156;15.954;2024-01-07T09:28:06;8.63;;;4.68;;
37231;SDS011;23125;48.156;15.954;2024-01-07T09:30:32;8.20;;;4.55;;
37231;SDS011;23125;48.156;15.954;2024-01-07T09:32:58;7.57;;;4.57;;
37231;SDS011;23125;48.156;15.954;2024-01-07T09:35:24;7.78;;;4.82;;
37231;SDS011;23125;48.156;15.954;2024-01-07T09:37:50;7.93;;;5.40;;
37231;SDS011;23125;48.156;15.954;2024-01-07T09:40:17;7.53;;;4.97;;
37231;SDS011;23125;48.156;15.954;2024-01-07T09:42:44;8.77;;;5.10;;
37231;SDS011;23125;48.156;15.954;2024-01-07T09:45:12;8.30;;;4.72;;
37231;SDS011;23125;48.156;15.954;2024-01-07T09:47:41;8.32;;;5.25;;
37231;SDS011;23125;48.156;15.954;2024-01-07T09:50:10;6.68;;;4.32;;
37231;SDS011;23125;48.156;15.954;2024-01-07T09:52:37;13.88;;;6.97;;
37231;SDS011;23125;48.156;15.954;2024-01-07T09:55:07;11.85;;;7.10;;
37231;SDS011;23125;48.156;15.954;2024-01-07T09:57:37;11.27;;;5.80;;
37231;SDS011;23125;48.156;15.954;2024-01-07T10:00:06;31.23;;;12.88;;
37231;SDS011;23125;48.156;15.954;2024-01-07T10:02:33;16.80;;;10.63;;
37231;SDS011;23125;48.156;15.954;2024-01-07T10:05:00;9.70;;;5.95;;
37231;SDS011;23125;48.156;15.954;2024-01-07T10:07:26;12.30;;;7.40;;
37231;SDS011;23125;48.156;15.954;2024-01-07T10:09:52;18.48;;;10.77;;
37231;SDS011;23125;48.156;15.954;2024-01-07T10:12:22;19.95;;;10.77;;
37231;SDS011;23125;48.156;15.954;2024-01-07T10:14:49;14.00;;;6.30;;
37231;SDS011;23125;48.156;15.954;2024-01-07T10:17:15;18.52;;;10.43;;
37231;SDS011;23125;48.156;15.954;2024-01-07T10:19:45;13.35;;;8.32;;
37231;SDS011;23125;48.156;15.954;2024-01-07T10:22:12;11.55;;;6.85;;
37231;SDS011;23125;48.156;15.954;2024-01-07T10:24:40;11.30;;;6.68;;
37231;SDS011;23125;48.156;15.954;2024-01-07T10:27:07;12.13;;;6.93;;
37231;SDS011;23125;48.156;15.954;2024-01-07T10:29:34;21.33;;;12.10;;
37231;SDS011;23125;48.156;15.954;2024-01-07T10:32:00;11.20;;;7.57;;
37231;SDS011;23125;48.156;15.954;2024-01-07T10:34:35;16.67;;;8.63;;
37231;SDS011;23125;48.156;15.954;2024-01-07T10:37:05;10.57;;;5.88;;
37231;SDS011;23125;48.156;15.954;2024-01-07T10:39:31;14.20;;;8.70;;
37231;SDS011;23125;48.156;15.954;2024-01-07T10:41:57;12.32;;;6.60;;
37231;SDS011;23125;48.156;15.954;2024-01-07T10:44:27;12.13;;;7.38;;
37231;SDS011;23125;48.156;15.954;2024-01-07T10:46:55;13.95;;;8.05;;
37231;SDS011;23125;48.156;15.954;2024-01-07T10:49:26;11.48;;;7.07;;
37231;SDS011;23125;48.156;15.954;2024-01-07T10:54:45;12.10;;;6.15;;
37231;SDS011;23125;48.156;15.954;2024-01-07T11:00:05;11.77;;;5.88;;
37231;SDS011;23125;48.156;15.954;2024-01-07T11:02:37;7.95;;;4.95;;
37231;SDS011;23125;48.156;15.954;2024-01-07T11:05:15;12.23;;;7.28;;
37231;SDS011;23125;48.156;15.954;2024-01-07T11:10:50;12.80;;;6.35;;
37231;SDS011;23125;48.156;15.954;2024-01-07T11:13:35;9.25;;;5.25;;
37231;SDS011;23125;48.156;15.954;2024-01-07T11:16:06;9.55;;;5.13;;
37231;SDS011;23125;48.156;15.954;2024-01-07T11:18:39;8.63;;;5.03;;
37231;SDS011;23125;48.156;15.954;2024-01-07T11:23:49;13.95;;;7.45;;
37231;SDS011;23125;48.156;15.954;2024-01-07T11:26:18;11.15;;;6.20;;
37231;SDS011;23125;48.156;15.954;2024-01-07T11:28:50;12.40;;;6.63;;
37231;SDS011;23125;48.156;15.954;2024-01-07T11:34:51;10.00;;;6.25;;
37231;SDS011;23125;48.156;15.954;2024-01-07T11:37:17;13.40;;;8.35;;
37231;SDS011;23125;48.156;15.954;2024-01-07T11:39:44;22.52;;;12.88;;
37231;SDS011;23125;48.156;15.954;2024-01-07T11:42:10;21.23;;;11.02;;
37231;SDS011;23125;48.156;15.954;2024-01-07T11:44:37;17.13;;;9.70;;
37231;SDS011;23125;48.156;15.954;2024-01-07T11:47:10;11.57;;;7.38;;
37231;SDS011;23125;48.156;15.954;2024-01-07T11:49:36;12.35;;;7.13;;
37231;SDS011;23125;48.156;15.954;2024-01-07T11:52:03;8.70;;;5.95;;
37231;SDS011;23125;48.156;15.954;2024-01-07T11:54:30;12.82;;;7.07;;
37231;SDS011;23125;48.156;15.954;2024-01-07T11:56:57;10.88;;;6.40;;
37231;SDS011;23125;48.156;15.954;2024-01-07T11:59:23;10.07;;;6.53;;
37231;SDS011;23125;48.156;15.954;2024-01-07T12:01:49;12.57;;;6.90;;
37231;SDS011;23125;48.156;15.954;2024-01-07T12:04:18;10.55;;;5.28;;
37231;SDS011;23125;48.156;15.954;2024-01-07T12:06:46;8.00;;;4.90;;
37231;SDS011;23125;48.156;15.954;2024-01-07T12:09:12;9.07;;;5.53;;
37231;SDS011;23125;48.156;15.954;2024-01-07T12:11:39;7.28;;;4.93;;
37231;SDS011;23125;48.156;15.954;2024-01-07T12:14:07;7.88;;;5.43;;
37231;SDS011;23125;48.156;15.954;2024-01-07T12:16:35;10.93;;;5.40;;
37231;SDS011;23125;48.156;15.954;2024-01-07T12:19:01;11.40;;;6.90;;
37231;SDS011;23125;48.156;15.954;2024-01-07T12:21:27;11.90;;;5.38;;
37231;SDS011;23125;48.156;15.954;2024-01-07T12:23:54;10.02;;;5.25;;
37231;SDS011;23125;48.156;15.954;2024-01-07T12:26:30;10.60;;;5.97;;
37231;SDS011;23125;48.156;15.954;2024-01-07T12:28:58;11.73;;;5.65;;
37231;SDS011;23125;48.156;15.954;2024-01-07T12:31:31;10.07;;;5.70;;
37231;SDS011;23125;48.156;15.954;2024-01-07T12:36:24;11.88;;;5.63;;
37231;SDS011;23125;48.156;15.954;2024-01-07T12:38:51;10.32;;;5.68;;
37231;SDS011;23125;48.156;15.954;2024-01-07T12:43:48;10.35;;;6.55;;
37231;SDS011;23125;48.156;15.954;2024-01-07T12:46:15;12.80;;;5.63;;
37231;SDS011;23125;48.156;15.954;2024-01-07T12:48:41;12.70;;;6.20;;
37231;SDS011;23125;48.156;15.954;2024-01-07T12:51:07;10.48;;;5.78;;
37231;SDS011;23125;48.156;15.954;2024-01-07T12:53:34;12.10;;;6.50;;
37231;SDS011;23125;48.156;15.954;2024-01-07T12:56:01;9.95;;;6.22;;
37231;SDS011;23125;48.156;15.954;2024-01-07T12:58:26;13.93;;;6.45;;
37231;SDS011;23125;48.156;15.954;2024-01-07T13:00:52;9.20;;;5.93;;
37231;SDS011;23125;48.156;15.954;2024-01-07T13:03:19;11.85;;;6.80;;
37231;SDS011;23125;48.156;15.954;2024-01-07T13:05:45;10.93;;;6.80;;
37231;SDS011;23125;48.156;15.954;2024-01-07T13:08:15;14.10;;;5.50;;
37231;SDS011;23125;48.156;15.954;2024-01-07T13:10:43;14.68;;;7.05;;
37231;SDS011;23125;48.156;15.954;2024-01-07T13:13:11;13.05;;;7.15;;
37231;SDS011;23125;48.156;15.954;2024-01-07T13:15:38;13.23;;;7.18;;
37231;SDS011;23125;48.156;15.954;2024-01-07T13:18:06;10.75;;;6.88;;
37231;SDS011;23125;48.156;15.954;2024-01-07T13:20:32;9.35;;;5.82;;
37231;SDS011;23125;48.156;15.954;2024-01-07T13:22:59;14.68;;;8.95;;
37231;SDS011;23125;48.156;15.954;2024-01-07T13:25:25;11.80;;;6.97;;
37231;SDS011;23125;48.156;15.954;2024-01-07T13:27:51;11.38;;;6.13;;
37231;SDS011;23125;48.156;15.954;2024-01-07T13:30:17;11.80;;;6.63;;
37231;SDS011;23125;48.156;15.954;2024-01-07T13:32:44;9.60;;;6.22;;
37231;SDS011;23125;48.156;15.954;2024-01-07T13:35:09;12.50;;;7.32;;
37231;SDS011;23125;48.156;15.954;2024-01-07T13:37:36;13.63;;;7.75;;
37231;SDS011;23125;48.156;15.954;2024-01-07T13:40:02;15.98;;;7.45;;
37231;SDS011;23125;48.156;15.954;2024-01-07T13:42:29;9.20;;;5.97;;
37231;SDS011;23125;48.156;15.954;2024-01-07T13:44:55;11.43;;;6.05;;
37231;SDS011;23125;48.156;15.954;2024-01-07T13:47:21;10.23;;;6.70;;
37231;SDS011;23125;48.156;15.954;2024-01-07T13:49:47;7.38;;;5.07;;
37231;SDS011;23125;48.156;15.954;2024-01-07T13:52:13;10.13;;;5.55;;
37231;SDS011;23125;48.156;15.954;2024-01-07T13:54:39;12.93;;;6.10;;
37231;SDS011;23125;48.156;15.954;2024-01-07T13:57:05;14.35;;;8.60;;
37231;SDS011;23125;48.156;15.954;2024-01-07T13:59:32;13.52;;;6.75;;
37231;SDS011;23125;48.156;15.954;2024-01-07T14:01:58;28.17;;;11.95;;
37231;SDS011;23125;48.156;15.954;2024-01-07T14:04:24;29.70;;;12.65;;
37231;SDS011;23125;48.156;15.954;2024-01-07T14:06:56;21.65;;;11.15;;
37231;SDS011;23125;48.156;15.954;2024-01-07T14:09:23;19.65;;;9.50;;
37231;SDS011;23125;48.156;15.954;2024-01-07T14:11:50;12.73;;;7.68;;
37231;SDS011;23125;48.156;15.954;2024-01-07T14:14:17;13.50;;;8.05;;
37231;SDS011;23125;48.156;15.954;2024-01-07T14:16:46;13.15;;;7.43;;
37231;SDS011;23125;48.156;15.954;2024-01-07T14:19:12;15.00;;;7.45;;
37231;SDS011;23125;48.156;15.954;2024-01-07T14:21:39;15.70;;;8.38;;
37231;SDS011;23125;48.156;15.954;2024-01-07T14:24:05;14.23;;;7.30;;
37231;SDS011;23125;48.156;15.954;2024-01-07T14:26:32;26.67;;;13.10;;
37231;SDS011;23125;48.156;15.954;2024-01-07T14:28:58;27.70;;;13.98;;
37231;SDS011;23125;48.156;15.954;2024-01-07T14:31:24;34.42;;;15.68;;
37231;SDS011;23125;48.156;15.954;2024-01-07T14:33:50;26.70;;;11.98;;
37231;SDS011;23125;48.156;15.954;2024-01-07T14:36:16;17.25;;;9.75;;
37231;SDS011;23125;48.156;15.954;2024-01-07T14:38:45;26.15;;;11.48;;
37231;SDS011;23125;48.156;15.954;2024-01-07T14:41:14;20.92;;;9.32;;
37231;SDS011;23125;48.156;15.954;2024-01-07T14:43:40;9.52;;;6.05;;
37231;SDS011;23125;48.156;15.954;2024-01-07T14:46:07;15.25;;;8.07;;
37231;SDS011;23125;48.156;15.954;2024-01-07T14:48:36;11.63;;;6.70;;